createdAt,value
2018-04-08T00:01:43.149Z,20.00
2018-04-08T00:04:10.704Z,21.37
2018-04-08T00:06:38.311Z,21.60
2018-04-08T00:09:07.122Z,17.90
2018-04-08T00:11:35.196Z,19.93
2018-04-08T00:14:02.748Z,19.67
2018-04-08T00:16:30.777Z,19.23
2018-04-08T00:18:58.693Z,21.10
2018-04-08T00:21:26.634Z,17.20
2018-04-08T00:23:54.279Z,21.03
2018-04-08T00:26:22.190Z,25.30
2018-04-08T00:28:49.746Z,17.37
2018-04-08T00:31:17.391Z,22.97
2018-04-08T00:33:45.562Z,19.87
2018-04-08T00:36:13.406Z,19.60
2018-04-08T00:38:40.965Z,21.50
2018-04-08T00:41:08.524Z,20.13
2018-04-08T00:43:36.393Z,20.53
2018-04-08T00:46:03.970Z,20.57
2018-04-08T00:48:31.529Z,22.53
2018-04-08T00:50:59.180Z,19.57
2018-04-08T00:53:26.756Z,20.97
2018-04-08T00:55:54.316Z,19.73
2018-04-08T00:58:21.912Z,18.10
2018-04-08T01:00:49.934Z,18.87
2018-04-08T01:03:17.970Z,18.43
2018-04-08T01:05:46.336Z,19.87
2018-04-08T01:08:13.944Z,20.67
2018-04-08T01:10:43.240Z,17.00
2018-04-08T01:13:10.800Z,14.90
2018-04-08T01:15:38.396Z,16.20
2018-04-08T01:18:06.144Z,17.07
2018-04-08T01:20:33.764Z,17.87
2018-04-08T01:23:01.816Z,19.13
2018-04-08T01:25:29.715Z,17.67
2018-04-08T01:27:57.300Z,19.33
2018-04-08T01:30:25.102Z,18.10
2018-04-08T01:32:53.752Z,16.03
2018-04-08T01:35:21.316Z,18.70
2018-04-08T01:37:49.469Z,17.17
2018-04-08T01:40:17.896Z,18.13
2018-04-08T01:42:45.506Z,16.30
2018-04-08T01:45:13.377Z,18.70
2018-04-08T01:47:40.928Z,21.70
2018-04-08T01:50:08.548Z,19.77
2018-04-08T01:52:36.663Z,19.50
2018-04-08T01:55:04.220Z,14.80
2018-04-08T01:57:31.782Z,20.83
2018-04-08T01:59:59.382Z,18.07
2018-04-08T02:02:27.425Z,17.30
2018-04-08T02:04:55.024Z,18.00
2018-04-08T02:07:22.628Z,18.97
2018-04-08T02:09:50.625Z,18.87
2018-04-08T02:12:18.233Z,20.47
2018-04-08T02:14:46.588Z,19.27
2018-04-08T02:17:14.527Z,18.37
2018-04-08T02:19:42.135Z,21.13
2018-04-08T02:22:09.696Z,22.57
2018-04-08T02:24:37.308Z,21.83
2018-04-08T02:27:05.231Z,22.13
2018-04-08T02:29:32.935Z,18.03
2018-04-08T02:32:00.788Z,19.03
2018-04-08T02:34:28.356Z,20.00
2018-04-08T02:36:56.758Z,22.57
2018-04-08T02:39:24.837Z,25.27
2018-04-08T02:41:52.392Z,24.37
2018-04-08T02:44:19.950Z,29.93
2018-04-08T02:46:48.207Z,23.47
2018-04-08T02:49:15.765Z,26.93
2018-04-08T02:51:43.367Z,26.30
2018-04-08T02:54:11.179Z,27.23
2018-04-08T02:56:39.070Z,26.17
2018-04-08T02:59:06.631Z,23.70
2018-04-08T03:01:34.189Z,24.97
2018-04-08T03:04:01.808Z,19.73
2018-04-08T03:06:29.376Z,17.93
2018-04-08T03:08:57.369Z,20.87
2018-04-08T03:11:24.992Z,19.50
2018-04-08T03:13:52.580Z,18.83
2018-04-08T03:16:20.613Z,21.63
2018-04-08T03:18:49.053Z,20.73
2018-04-08T03:21:16.668Z,27.47
2018-04-08T03:23:45.002Z,29.93
2018-04-08T03:26:13.256Z,36.33
2018-04-08T03:28:40.868Z,31.90
2018-04-08T03:31:08.444Z,30.97
2018-04-08T03:33:36.008Z,29.33
2018-04-08T03:36:03.608Z,29.87
2018-04-08T03:38:31.168Z,24.53
2018-04-08T03:40:59.100Z,23.60
2018-04-08T03:43:26.704Z,23.03
2018-04-08T03:45:54.267Z,28.73
2018-04-08T03:48:21.884Z,28.90
2018-04-08T03:50:49.443Z,29.57
2018-04-08T03:53:17.552Z,38.40
2018-04-08T03:55:45.694Z,23.50
2018-04-08T03:58:13.248Z,26.63
2018-04-08T04:00:40.864Z,27.40
2018-04-08T04:03:08.913Z,27.40
2018-04-08T04:05:36.548Z,31.07
2018-04-08T04:08:04.622Z,29.37
2018-04-08T04:10:32.206Z,26.30
2018-04-08T04:12:59.783Z,34.00
2018-04-08T04:15:27.415Z,31.80
2018-04-08T04:17:54.968Z,28.80
2018-04-08T04:20:34.717Z,34.23
2018-04-08T04:23:13.828Z,29.20
2018-04-08T04:25:53.273Z,30.37
2018-04-08T04:28:20.972Z,32.73
2018-04-08T04:30:48.564Z,38.37
2018-04-08T04:33:16.577Z,33.47
2018-04-08T04:35:44.863Z,48.63
2018-04-08T04:38:13.216Z,49.67
2018-04-08T04:40:40.772Z,40.27
2018-04-08T04:43:08.367Z,40.63
2018-04-08T04:45:35.947Z,32.20
2018-04-08T04:48:03.544Z,34.37
2018-04-08T04:50:31.486Z,32.00
2018-04-08T04:52:59.576Z,45.33
2018-04-08T04:55:27.208Z,51.07
2018-04-08T04:57:54.784Z,41.87
2018-04-08T05:00:23.335Z,34.50
2018-04-08T05:02:50.924Z,31.17
2018-04-08T05:05:19.351Z,32.10
2018-04-08T05:07:46.915Z,31.90
2018-04-08T05:10:14.527Z,34.30
2018-04-08T05:12:42.725Z,31.73
2018-04-08T05:15:11.084Z,27.77
2018-04-08T05:17:39.560Z,31.30
2018-04-08T05:20:07.120Z,28.30
2018-04-08T05:22:35.184Z,28.83
2018-04-08T05:25:02.832Z,25.53
2018-04-08T05:27:30.391Z,25.60
2018-04-08T05:29:58.336Z,25.03
2018-04-08T05:32:26.008Z,31.43
2018-04-08T05:34:54.104Z,27.50
2018-04-08T05:37:23.137Z,28.77
2018-04-08T05:39:51.276Z,22.40
2018-04-08T05:42:18.896Z,21.07
2018-04-08T05:44:47.658Z,21.93
2018-04-08T05:47:15.740Z,22.73
2018-04-08T05:49:43.580Z,18.70
2018-04-08T05:52:11.352Z,19.33
2018-04-08T05:54:39.449Z,18.70
2018-04-08T05:57:07.709Z,15.57
2018-04-08T05:59:35.343Z,19.33
2018-04-08T06:02:03.415Z,17.40
2018-04-08T06:04:32.283Z,22.63
2018-04-08T06:07:00.388Z,17.07
2018-04-08T06:09:28.529Z,18.13
2018-04-08T06:11:56.112Z,15.00
2018-04-08T06:14:24.094Z,17.83
2018-04-08T06:16:52.114Z,16.50
2018-04-08T06:19:20.468Z,17.43
2018-04-08T06:21:48.672Z,14.67
2018-04-08T06:24:16.352Z,24.20
2018-04-08T06:26:44.396Z,27.13
2018-04-08T06:29:12.123Z,34.00
2018-04-08T06:31:40.698Z,18.87
2018-04-08T06:34:08.384Z,16.73
2018-04-08T06:36:36.516Z,16.97
2018-04-08T06:39:05.001Z,19.43
2018-04-08T06:41:33.101Z,13.97
2018-04-08T06:44:00.728Z,14.00
2018-04-08T06:46:30.652Z,14.40
2018-04-08T06:48:58.252Z,12.73
2018-04-08T06:51:27.840Z,15.27
2018-04-08T06:53:55.436Z,19.90
2018-04-08T06:56:22.996Z,16.40
2018-04-08T06:58:50.826Z,14.63
2018-04-08T07:01:18.389Z,15.63
2018-04-08T07:03:46.021Z,11.83
2018-04-08T07:06:14.117Z,15.57
2018-04-08T07:08:42.805Z,14.10
2018-04-08T07:11:10.637Z,13.30
2018-04-08T07:13:38.188Z,17.83
2018-04-08T07:16:05.750Z,14.13
2018-04-08T07:18:33.359Z,15.73
2018-04-08T07:21:01.279Z,15.13
2018-04-08T07:23:28.864Z,14.67
2018-04-08T07:25:57.027Z,14.03
2018-04-08T07:28:25.093Z,12.83
2018-04-08T07:30:53.059Z,14.87
2018-04-08T07:33:20.624Z,15.93
2018-04-08T07:35:48.286Z,15.00
2018-04-08T07:38:15.845Z,18.97
2018-04-08T07:40:43.456Z,15.00
2018-04-08T07:43:11.012Z,17.20
2018-04-08T07:45:38.568Z,13.60
2018-04-08T07:48:06.376Z,13.57
2018-04-08T07:50:34.310Z,14.43
2018-04-08T07:53:02.268Z,13.83
2018-04-08T07:55:29.821Z,10.70
2018-04-08T07:57:57.377Z,11.67
2018-04-08T08:00:25.233Z,13.80
2018-04-08T08:02:53.154Z,14.37
2018-04-08T08:05:20.795Z,12.07
2018-04-08T08:07:49.045Z,9.97
2018-04-08T08:10:17.507Z,11.97
2018-04-08T08:12:45.077Z,10.50
2018-04-08T08:15:12.633Z,15.37
2018-04-08T08:17:40.485Z,12.50
2018-04-08T08:20:08.328Z,15.50
2018-04-08T08:22:36.393Z,10.47
2018-04-08T08:25:03.964Z,12.03
2018-04-08T08:27:31.520Z,10.37
2018-04-08T08:29:59.339Z,14.23
2018-04-08T08:32:27.804Z,12.40
2018-04-08T08:34:55.359Z,12.13
2018-04-08T08:37:22.973Z,10.80
2018-04-08T08:39:50.533Z,9.37
2018-04-08T08:42:18.132Z,11.50
2018-04-08T08:44:45.679Z,9.67
2018-04-08T08:47:13.271Z,13.27
2018-04-08T08:49:40.829Z,9.47
2018-04-08T08:52:08.609Z,11.57
2018-04-08T08:54:36.208Z,8.97
2018-04-08T08:57:04.764Z,10.57
2018-04-08T08:59:33.544Z,9.50
2018-04-08T09:02:01.131Z,12.10
2018-04-08T09:04:29.227Z,12.53
2018-04-08T09:07:12.428Z,9.50
2018-04-08T09:09:55.436Z,10.57
2018-04-08T09:12:38.784Z,9.00
2018-04-08T09:15:23.424Z,10.83
2018-04-08T09:18:07.001Z,11.87
2018-04-08T09:24:07.888Z,9.80
2018-04-08T09:26:50.276Z,8.37
2018-04-08T09:29:33.309Z,8.93
2018-04-08T09:32:17.715Z,11.00
2018-04-08T09:35:02.182Z,8.67
2018-04-08T09:37:46.345Z,8.80
2018-04-08T09:40:30.356Z,9.10
2018-04-08T09:42:58.388Z,8.07
2018-04-08T09:45:25.946Z,7.80
2018-04-08T09:47:55.013Z,8.73
2018-04-08T09:50:23.700Z,11.77
2018-04-08T09:52:51.967Z,7.10
2018-04-08T09:55:20.384Z,7.43
2018-04-08T09:57:49.794Z,8.47
2018-04-08T10:00:23.413Z,9.83
2018-04-08T10:02:56.673Z,11.13
2018-04-08T10:05:24.913Z,9.13
2018-04-08T10:07:52.561Z,8.03
2018-04-08T10:10:20.116Z,6.57
2018-04-08T10:12:47.724Z,8.70
2018-04-08T10:15:16.177Z,9.13
2018-04-08T10:17:44.549Z,8.17
2018-04-08T10:20:12.174Z,6.33
2018-04-08T10:22:40.581Z,8.17
2018-04-08T10:25:08.681Z,12.37
2018-04-08T10:27:37.048Z,9.77
2018-04-08T10:30:05.173Z,6.80
2018-04-08T10:32:33.397Z,8.03
2018-04-08T10:35:00.951Z,16.00
2018-04-08T10:37:28.505Z,9.67
2018-04-08T10:39:56.542Z,9.27
2018-04-08T10:42:24.093Z,8.17
2018-04-08T10:44:52.174Z,6.90
2018-04-08T10:47:20.764Z,6.80
2018-04-08T10:49:48.806Z,8.07
2018-04-08T10:52:18.648Z,9.93
2018-04-08T10:54:46.252Z,9.40
2018-04-08T10:57:14.604Z,8.03
2018-04-08T10:59:43.040Z,8.23
2018-04-08T11:02:10.592Z,8.23
2018-04-08T11:04:38.213Z,6.57
2018-04-08T11:07:06.044Z,8.20
2018-04-08T11:09:33.651Z,8.43
2018-04-08T11:12:01.899Z,7.23
2018-04-08T11:14:30.041Z,6.43
2018-04-08T11:16:57.637Z,7.23
2018-04-08T11:19:25.192Z,9.00
2018-04-08T11:21:52.796Z,10.30
2018-04-08T11:24:20.352Z,7.50
2018-04-08T11:26:49.825Z,6.50
2018-04-08T11:29:17.453Z,9.63
2018-04-08T11:31:45.335Z,9.47
2018-04-08T11:34:12.884Z,7.13
2018-04-08T11:36:40.504Z,5.47
2018-04-08T11:39:08.097Z,8.23
2018-04-08T11:41:35.684Z,6.80
2018-04-08T11:44:03.424Z,7.73
2018-04-08T11:46:31.020Z,7.50
2018-04-08T11:48:58.580Z,11.07
2018-04-08T11:51:26.176Z,8.80
2018-04-08T11:53:53.872Z,9.53
2018-04-08T11:56:21.882Z,7.60
2018-04-08T11:58:49.493Z,7.83
2018-04-08T12:01:17.244Z,6.40
2018-04-08T12:03:44.812Z,7.30
2018-04-08T12:06:12.547Z,10.20
2018-04-08T12:08:40.104Z,7.17
2018-04-08T12:11:07.850Z,6.33
2018-04-08T12:13:35.488Z,9.87
2018-04-08T12:16:03.257Z,7.70
2018-04-08T12:18:30.864Z,9.57
2018-04-08T12:20:58.488Z,7.47
2018-04-08T12:23:26.514Z,6.60
2018-04-08T12:25:54.729Z,6.40
2018-04-08T12:28:22.349Z,9.00
2018-04-08T12:30:50.515Z,7.00
2018-04-08T12:33:18.426Z,7.83
2018-04-08T12:35:46.447Z,11.07
2018-04-08T12:38:15.333Z,8.17
2018-04-08T12:40:42.940Z,6.23
2018-04-08T12:43:10.790Z,7.53
2018-04-08T12:45:38.344Z,8.70
2018-04-08T12:48:05.892Z,8.53
2018-04-08T12:50:33.813Z,6.63
2018-04-08T12:53:01.360Z,6.57
2018-04-08T12:55:28.924Z,8.03
2018-04-08T12:57:56.844Z,11.13
2018-04-08T13:00:24.432Z,8.50
2018-04-08T13:02:52.000Z,9.87
2018-04-08T13:05:19.596Z,6.97
2018-04-08T13:07:47.707Z,7.13
2018-04-08T13:10:15.248Z,6.20
2018-04-08T13:12:42.811Z,7.47
2018-04-08T13:15:10.472Z,9.90
2018-04-08T13:17:38.988Z,7.90
2018-04-08T13:20:06.557Z,7.77
2018-04-08T13:22:34.160Z,8.13
2018-04-08T13:25:01.716Z,9.37
2018-04-08T13:27:29.680Z,9.00
2018-04-08T13:29:58.144Z,7.07
2018-04-08T13:32:25.696Z,7.10
2018-04-08T13:34:54.225Z,6.60
2018-04-08T13:37:21.828Z,6.20
2018-04-08T13:39:49.807Z,10.23
2018-04-08T13:42:17.616Z,7.57
2018-04-08T13:44:45.216Z,6.83
2018-04-08T13:47:13.146Z,10.20
2018-04-08T13:49:40.902Z,6.40
2018-04-08T13:52:09.016Z,7.63
2018-04-08T13:54:37.705Z,5.67
2018-04-08T13:57:05.867Z,5.50
2018-04-08T13:59:33.432Z,5.90
2018-04-08T14:02:01.351Z,6.97
2018-04-08T14:04:28.942Z,5.60
2018-04-08T14:06:56.508Z,7.07
2018-04-08T14:09:24.240Z,6.33
2018-04-08T14:11:52.316Z,8.33
2018-04-08T14:14:19.868Z,8.33
2018-04-08T14:16:47.469Z,7.50
2018-04-08T14:19:15.077Z,5.97
2018-04-08T14:21:42.685Z,9.13
2018-04-08T14:24:10.632Z,6.80
2018-04-08T14:26:40.165Z,5.40
2018-04-08T14:29:08.772Z,7.90
2018-04-08T14:31:36.910Z,5.80
2018-04-08T14:34:04.465Z,6.03
2018-04-08T14:36:32.384Z,6.73
2018-04-08T14:38:59.972Z,9.23
2018-04-08T14:41:27.989Z,7.43
2018-04-08T14:43:56.763Z,5.80
2018-04-08T14:46:24.718Z,6.97
2018-04-08T14:48:52.571Z,5.47
2018-04-08T14:51:20.638Z,7.10
2018-04-08T14:53:49.552Z,6.00
2018-04-08T14:56:17.144Z,6.27
2018-04-08T14:58:45.545Z,5.77
2018-04-08T15:01:13.872Z,5.00
2018-04-08T15:03:43.415Z,7.17
2018-04-08T15:06:11.466Z,6.00
2018-04-08T15:08:39.829Z,7.23
2018-04-08T15:11:07.441Z,8.20
2018-04-08T15:13:36.088Z,6.57
2018-04-08T15:16:03.728Z,6.83
2018-04-08T15:18:31.671Z,10.03
2018-04-08T15:21:00.185Z,7.20
2018-04-08T15:23:27.804Z,7.67
2018-04-08T15:25:55.344Z,7.07
2018-04-08T15:28:23.835Z,7.70
2018-04-08T15:30:51.996Z,7.40
2018-04-08T15:33:19.926Z,9.17
2018-04-08T15:35:47.995Z,8.00
2018-04-08T15:38:15.815Z,6.80
2018-04-08T15:40:44.264Z,4.77
2018-04-08T15:43:12.823Z,6.57
2018-04-08T15:45:41.045Z,6.43
2018-04-08T15:48:08.608Z,5.63
2018-04-08T15:50:36.184Z,5.77
2018-04-08T15:53:05.684Z,8.37
2018-04-08T15:55:33.793Z,6.17
2018-04-08T15:58:01.393Z,7.47
2018-04-08T16:00:28.941Z,7.33
2018-04-08T16:02:56.592Z,6.40
2018-04-08T16:05:25.065Z,7.13
2018-04-08T16:07:53.165Z,6.27
2018-04-08T16:10:21.296Z,6.07
2018-04-08T16:12:49.676Z,5.53
2018-04-08T16:15:17.937Z,5.80
2018-04-08T16:17:45.513Z,5.90
2018-04-08T16:20:13.156Z,5.73
2018-04-08T16:22:40.732Z,7.27
2018-04-08T16:25:08.601Z,5.03
2018-04-08T16:27:36.752Z,5.90
2018-04-08T16:30:04.736Z,7.10
2018-04-08T16:32:33.084Z,5.37
2018-04-08T16:35:01.400Z,6.63
2018-04-08T16:37:29.769Z,9.97
2018-04-08T16:39:57.377Z,7.37
2018-04-08T16:42:25.941Z,10.03
2018-04-08T16:44:54.996Z,5.80
2018-04-08T16:47:23.044Z,7.10
2018-04-08T16:49:51.360Z,7.27
2018-04-08T16:52:18.910Z,5.67
2018-04-08T16:54:46.640Z,8.60
2018-04-08T16:57:15.064Z,7.90
2018-04-08T16:59:43.468Z,6.27
2018-04-08T17:02:12.015Z,9.70
2018-04-08T17:04:40.283Z,8.43
2018-04-08T17:07:07.833Z,6.90
2018-04-08T17:09:35.375Z,6.27
2018-04-08T17:12:04.888Z,8.00
2018-04-08T17:14:32.433Z,5.80
2018-04-08T17:17:00.025Z,4.97
2018-04-08T17:19:27.854Z,6.07
2018-04-08T17:21:55.932Z,7.60
2018-04-08T17:24:24.933Z,5.87
2018-04-08T17:26:52.725Z,7.93
2018-04-08T17:29:20.457Z,4.73
2018-04-08T17:31:48.735Z,5.80
2018-04-08T17:34:16.319Z,6.00
2018-04-08T17:36:45.305Z,8.07
2018-04-08T17:39:15.465Z,6.13
2018-04-08T17:41:43.912Z,8.17
2018-04-08T17:44:11.527Z,6.63
2018-04-08T17:46:39.085Z,7.03
2018-04-08T17:49:09.357Z,7.30
2018-04-08T17:51:36.913Z,17.77
2018-04-08T17:54:05.284Z,5.87
2018-04-08T17:56:32.873Z,7.40
2018-04-08T17:59:00.957Z,7.70
2018-04-08T18:01:28.512Z,7.40
2018-04-08T18:03:57.815Z,5.67
2018-04-08T18:06:25.742Z,8.30
2018-04-08T18:08:53.895Z,7.47
2018-04-08T18:11:21.972Z,8.30
2018-04-08T18:13:49.584Z,9.07
2018-04-08T18:16:18.622Z,7.07
2018-04-08T18:18:46.633Z,6.20
2018-04-08T18:21:14.184Z,9.57
2018-04-08T18:23:42.766Z,8.43
2018-04-08T18:26:10.320Z,10.77
2018-04-08T18:28:38.248Z,6.63
2018-04-08T18:31:06.438Z,13.73
2018-04-08T18:33:34.731Z,9.80
2018-04-08T18:36:04.212Z,9.00
2018-04-08T18:38:31.830Z,8.00
2018-04-08T18:40:59.927Z,8.17
2018-04-08T18:43:27.479Z,9.03
2018-04-08T18:45:55.077Z,11.93
2018-04-08T18:48:24.553Z,13.87
2018-04-08T18:50:52.460Z,12.07
2018-04-08T18:53:20.054Z,12.23
2018-04-08T18:55:48.074Z,9.50
2018-04-08T18:58:16.431Z,10.57
2018-04-08T19:00:43.976Z,8.07
2018-04-08T19:03:11.585Z,9.07
2018-04-08T19:05:39.138Z,11.23
2018-04-08T19:08:07.240Z,9.77
2018-04-08T19:10:34.844Z,11.13
2018-04-08T19:13:03.659Z,9.60
2018-04-08T19:15:31.600Z,9.43
2018-04-08T19:18:02.969Z,11.53
2018-04-08T19:20:31.056Z,9.37
2018-04-08T19:22:58.872Z,9.23
2018-04-08T19:25:27.528Z,8.87
2018-04-08T19:27:55.259Z,7.53
2018-04-08T19:30:22.837Z,10.40
2018-04-08T19:32:50.551Z,12.23
2018-04-08T19:35:18.116Z,10.17
2018-04-08T19:37:45.707Z,8.70
2018-04-08T19:40:13.436Z,10.13
2018-04-08T19:42:41.300Z,12.83
2018-04-08T19:45:08.852Z,11.27
2018-04-08T19:47:36.400Z,11.23
2018-04-08T19:50:04.041Z,10.30
2018-04-08T19:52:31.608Z,10.00
2018-04-08T19:54:59.163Z,10.43
2018-04-08T19:57:27.228Z,10.33
2018-04-08T19:59:55.890Z,11.77
2018-04-08T20:02:23.827Z,8.57
2018-04-08T20:04:52.662Z,9.37
2018-04-08T20:07:22.339Z,13.33
2018-04-08T20:09:50.499Z,10.10
2018-04-08T20:12:18.080Z,11.03
2018-04-08T20:14:45.969Z,6.50
2018-04-08T20:17:15.151Z,12.03
2018-04-08T20:19:44.135Z,12.50
2018-04-08T20:22:12.621Z,10.03
2018-04-08T20:24:41.140Z,11.40
2018-04-08T20:27:09.325Z,8.27
2018-04-08T20:29:36.942Z,10.80
2018-04-08T20:32:04.493Z,10.63
2018-04-08T20:34:32.056Z,11.23
2018-04-08T20:37:01.049Z,11.60
2018-04-08T20:39:28.600Z,11.03
2018-04-08T20:41:56.657Z,8.30
2018-04-08T20:44:24.648Z,8.63
2018-04-08T20:46:52.200Z,11.77
2018-04-08T20:49:20.689Z,10.83
2018-04-08T20:51:48.272Z,9.87
2018-04-08T20:54:15.865Z,10.07
2018-04-08T20:56:43.429Z,11.23
2018-04-08T20:59:11.044Z,11.07
2018-04-08T21:01:38.589Z,9.73
2018-04-08T21:04:06.648Z,11.37
2018-04-08T21:06:34.239Z,9.80
2018-04-08T21:09:02.257Z,8.87
2018-04-08T21:11:30.014Z,9.67
2018-04-08T21:13:57.640Z,9.30
2018-04-08T21:16:25.396Z,13.27
2018-04-08T21:18:53.548Z,9.50
2018-04-08T21:21:21.164Z,9.53
2018-04-08T21:23:49.227Z,9.90
2018-04-08T21:26:16.795Z,14.07
2018-04-08T21:28:45.360Z,11.80
2018-04-08T21:31:12.964Z,14.20
2018-04-08T21:33:40.531Z,12.87
2018-04-08T21:36:08.875Z,15.67
2018-04-08T21:38:37.171Z,16.50
2018-04-08T21:41:05.137Z,13.47
2018-04-08T21:43:33.279Z,15.20
2018-04-08T21:46:01.405Z,14.70
2018-04-08T21:48:29.784Z,12.33
2018-04-08T21:50:57.361Z,17.03
2018-04-08T21:53:25.309Z,12.10
2018-04-08T21:55:52.904Z,15.40
2018-04-08T21:58:20.496Z,14.10
2018-04-08T22:00:48.937Z,12.10
2018-04-08T22:03:17.293Z,13.60
2018-04-08T22:05:45.421Z,12.87
2018-04-08T22:08:12.977Z,14.37
2018-04-08T22:10:40.532Z,12.93
2018-04-08T22:13:08.957Z,12.80
2018-04-08T22:15:36.508Z,14.87
2018-04-08T22:18:04.489Z,14.73
2018-04-08T22:20:32.136Z,10.83
2018-04-08T22:23:00.082Z,16.17
2018-04-08T22:25:27.633Z,11.77
2018-04-08T22:27:55.240Z,13.50
2018-04-08T22:30:23.204Z,14.70
2018-04-08T22:32:50.824Z,11.43
2018-04-08T22:35:18.372Z,13.10
2018-04-08T22:37:45.984Z,13.07
2018-04-08T22:40:14.140Z,13.13
2018-04-08T22:42:42.383Z,12.43
2018-04-08T22:45:09.937Z,12.57
2018-04-08T22:47:38.640Z,13.23
2018-04-08T22:50:06.232Z,13.80
2018-04-08T22:52:34.097Z,11.03
2018-04-08T22:55:01.698Z,17.80
2018-04-08T22:57:29.264Z,14.93
2018-04-08T22:59:56.994Z,15.93
2018-04-08T23:02:25.109Z,15.93
2018-04-08T23:04:52.724Z,15.37
2018-04-08T23:07:20.340Z,16.40
2018-04-08T23:09:47.917Z,20.70
2018-04-08T23:12:15.472Z,13.93
2018-04-08T23:14:43.539Z,15.07
2018-04-08T23:17:11.092Z,18.93
2018-04-08T23:19:38.945Z,22.60
2018-04-08T23:22:06.576Z,22.07
2018-04-08T23:24:34.172Z,20.13
2018-04-08T23:27:01.724Z,23.33
2018-04-08T23:29:29.809Z,15.33
2018-04-08T23:31:57.541Z,18.90
2018-04-08T23:34:25.099Z,20.93
2018-04-08T23:36:52.722Z,24.37
2018-04-08T23:39:20.662Z,31.43
2018-04-08T23:41:48.284Z,24.47
2018-04-08T23:44:16.524Z,22.33
2018-04-08T23:46:44.122Z,26.60
2018-04-08T23:49:11.724Z,27.47
2018-04-08T23:51:39.699Z,26.07
2018-04-08T23:54:07.257Z,26.77
2018-04-08T23:56:34.860Z,24.70
2018-04-08T23:59:02.948Z,24.10
